sensor_id;sensor_type;location;lat;lon;timestamp;temperature;humidity
12268;DHT22;6196;48.398;11.736;2023-03-16T00:00:01;0.20;99.90
12268;DHT22;6196;48.398;11.736;2023-03-16T00:02:29;0.20;99.90
12268;DHT22;6196;48.398;11.736;2023-03-16T00:04:56;0.20;99.90
12268;DHT22;6196;48.398;11.736;2023-03-16T00:07:22;0.20;99.90
12268;DHT22;6196;48.398;11.736;2023-03-16T00:09:50;0.20;99.90
12268;DHT22;6196;48.398;11.736;2023-03-16T00:12:18;0.20;99.90
12268;DHT22;6196;48.398;11.736;2023-03-16T00:14:46;0.30;99.90
12268;DHT22;6196;48.398;11.736;2023-03-16T00:17:16;0.30;99.90
12268;DHT22;6196;48.398;11.736;2023-03-16T00:19:49;0.30;99.90
12268;DHT22;6196;48.398;11.736;2023-03-16T00:22:22;0.30;99.90
12268;DHT22;6196;48.398;11.736;2023-03-16T00:24:53;0.20;99.90
12268;DHT22;6196;48.398;11.736;2023-03-16T00:27:22;0.20;99.90
12268;DHT22;6196;48.398;11.736;2023-03-16T00:29:51;0.20;99.90
12268;DHT22;6196;48.398;11.736;2023-03-16T00:32:27;0.20;99.90
12268;DHT22;6196;48.398;11.736;2023-03-16T00:34:56;0.10;99.90
12268;DHT22;6196;48.398;11.736;2023-03-16T00:37:24;0.10;99.90
12268;DHT22;6196;48.398;11.736;2023-03-16T00:39:52;0.10;99.90
12268;DHT22;6196;48.398;11.736;2023-03-16T00:42:24;0.10;99.90
12268;DHT22;6196;48.398;11.736;2023-03-16T00:44:57;0.10;99.90
12268;DHT22;6196;48.398;11.736;2023-03-16T00:47:27;0.10;99.90
12268;DHT22;6196;48.398;11.736;2023-03-16T00:49:55;0.10;99.90
12268;DHT22;6196;48.398;11.736;2023-03-16T00:52:23;0.10;99.90
12268;DHT22;6196;48.398;11.736;2023-03-16T00:54:50;0.10;99.90
12268;DHT22;6196;48.398;11.736;2023-03-16T00:57:21;0.10;99.90
12268;DHT22;6196;48.398;11.736;2023-03-16T00:59:50;0.00;99.90
12268;DHT22;6196;48.398;11.736;2023-03-16T01:02:18;0.00;99.90
12268;DHT22;6196;48.398;11.736;2023-03-16T01:04:49;-0.10;99.90
12268;DHT22;6196;48.398;11.736;2023-03-16T01:07:17;-0.10;99.90
12268;DHT22;6196;48.398;11.736;2023-03-16T01:09:45;-0.10;99.90
12268;DHT22;6196;48.398;11.736;2023-03-16T01:12:15;-0.10;99.90
12268;DHT22;6196;48.398;11.736;2023-03-16T01:14:44;-0.10;99.90
12268;DHT22;6196;48.398;11.736;2023-03-16T01:17:15;-0.20;99.90
12268;DHT22;6196;48.398;11.736;2023-03-16T01:19:43;-0.20;99.90
12268;DHT22;6196;48.398;11.736;2023-03-16T01:22:11;-0.30;99.90
12268;DHT22;6196;48.398;11.736;2023-03-16T01:24:38;-0.30;99.90
12268;DHT22;6196;48.398;11.736;2023-03-16T01:27:07;-0.30;99.90
12268;DHT22;6196;48.398;11.736;2023-03-16T01:29:34;-0.40;99.90
12268;DHT22;6196;48.398;11.736;2023-03-16T01:32:02;-0.40;99.90
12268;DHT22;6196;48.398;11.736;2023-03-16T01:34:30;-0.40;99.90
12268;DHT22;6196;48.398;11.736;2023-03-16T01:36:57;-0.40;99.90
12268;DHT22;6196;48.398;11.736;2023-03-16T01:39:24;-0.50;99.90
12268;DHT22;6196;48.398;11.736;2023-03-16T01:41:52;-0.50;99.90
12268;DHT22;6196;48.398;11.736;2023-03-16T01:44:22;-0.50;99.90
12268;DHT22;6196;48.398;11.736;2023-03-16T01:46:56;-0.50;99.90
12268;DHT22;6196;48.398;11.736;2023-03-16T01:49:27;-0.50;99.90
12268;DHT22;6196;48.398;11.736;2023-03-16T01:52:02;-0.50;99.90
12268;DHT22;6196;48.398;11.736;2023-03-16T01:54:35;-0.50;99.90
12268;DHT22;6196;48.398;11.736;2023-03-16T01:57:12;-0.50;99.90
12268;DHT22;6196;48.398;11.736;2023-03-16T01:59:47;-0.50;99.90
12268;DHT22;6196;48.398;11.736;2023-03-16T02:02:50;-0.50;99.90
12268;DHT22;6196;48.398;11.736;2023-03-16T02:05:29;-0.50;99.90
12268;DHT22;6196;48.398;11.736;2023-03-16T02:08:00;-0.50;99.90
12268;DHT22;6196;48.398;11.736;2023-03-16T02:10:28;-0.50;99.90
12268;DHT22;6196;48.398;11.736;2023-03-16T02:12:56;-0.50;99.90
12268;DHT22;6196;48.398;11.736;2023-03-16T02:15:24;-0.50;99.90
12268;DHT22;6196;48.398;11.736;2023-03-16T02:17:51;-0.50;99.90
12268;DHT22;6196;48.398;11.736;2023-03-16T02:23:04;-0.50;99.90
12268;DHT22;6196;48.398;11.736;2023-03-16T02:25:43;-0.50;99.90
12268;DHT22;6196;48.398;11.736;2023-03-16T02:28:37;-0.50;99.90
12268;DHT22;6196;48.398;11.736;2023-03-16T02:31:15;-0.60;99.90
12268;DHT22;6196;48.398;11.736;2023-03-16T02:33:44;-0.60;99.90
12268;DHT22;6196;48.398;11.736;2023-03-16T02:36:13;-0.60;99.90
12268;DHT22;6196;48.398;11.736;2023-03-16T02:38:40;-0.60;99.90
12268;DHT22;6196;48.398;11.736;2023-03-16T02:41:15;-0.60;99.90
12268;DHT22;6196;48.398;11.736;2023-03-16T02:46:57;-0.70;99.90
12268;DHT22;6196;48.398;11.736;2023-03-16T02:49:33;-0.80;99.90
12268;DHT22;6196;48.398;11.736;2023-03-16T02:52:05;-0.90;99.90
12268;DHT22;6196;48.398;11.736;2023-03-16T02:54:33;-1.00;99.90
12268;DHT22;6196;48.398;11.736;2023-03-16T02:57:00;-1.00;99.90
12268;DHT22;6196;48.398;11.736;2023-03-16T02:59:27;-1.10;99.90
12268;DHT22;6196;48.398;11.736;2023-03-16T03:01:54;-1.10;99.90
12268;DHT22;6196;48.398;11.736;2023-03-16T03:04:21;-1.10;99.90
12268;DHT22;6196;48.398;11.736;2023-03-16T03:06:50;-1.20;99.90
12268;DHT22;6196;48.398;11.736;2023-03-16T03:09:18;-1.10;99.90
12268;DHT22;6196;48.398;11.736;2023-03-16T03:11:45;-1.20;99.90
12268;DHT22;6196;48.398;11.736;2023-03-16T03:14:12;-1.20;99.90
12268;DHT22;6196;48.398;11.736;2023-03-16T03:16:42;-1.20;99.90
12268;DHT22;6196;48.398;11.736;2023-03-16T03:19:12;-1.20;99.90
12268;DHT22;6196;48.398;11.736;2023-03-16T03:21:40;-1.20;99.90
12268;DHT22;6196;48.398;11.736;2023-03-16T03:24:07;-1.20;99.90
12268;DHT22;6196;48.398;11.736;2023-03-16T03:26:35;-1.20;99.90
12268;DHT22;6196;48.398;11.736;2023-03-16T03:29:05;-1.20;99.90
12268;DHT22;6196;48.398;11.736;2023-03-16T03:31:32;-1.20;99.90
12268;DHT22;6196;48.398;11.736;2023-03-16T03:33:59;-1.10;99.90
12268;DHT22;6196;48.398;11.736;2023-03-16T03:36:32;-1.10;99.90
12268;DHT22;6196;48.398;11.736;2023-03-16T03:39:00;-1.10;99.90
12268;DHT22;6196;48.398;11.736;2023-03-16T03:41:31;-1.20;99.90
12268;DHT22;6196;48.398;11.736;2023-03-16T03:43:59;-1.20;99.90
12268;DHT22;6196;48.398;11.736;2023-03-16T03:46:26;-1.20;99.90
12268;DHT22;6196;48.398;11.736;2023-03-16T03:48:53;-1.30;99.90
12268;DHT22;6196;48.398;11.736;2023-03-16T03:51:20;-1.30;99.90
12268;DHT22;6196;48.398;11.736;2023-03-16T03:53:47;-1.40;99.90
12268;DHT22;6196;48.398;11.736;2023-03-16T03:56:14;-1.40;99.90
12268;DHT22;6196;48.398;11.736;2023-03-16T03:58:41;-1.40;99.90
12268;DHT22;6196;48.398;11.736;2023-03-16T04:01:07;-1.40;99.90
12268;DHT22;6196;48.398;11.736;2023-03-16T04:03:34;-1.40;99.90
12268;DHT22;6196;48.398;11.736;2023-03-16T04:06:01;-1.40;99.90
12268;DHT22;6196;48.398;11.736;2023-03-16T04:08:28;-1.40;99.90
12268;DHT22;6196;48.398;11.736;2023-03-16T04:10:55;-1.40;99.90
12268;DHT22;6196;48.398;11.736;2023-03-16T04:13:22;-1.40;99.90
12268;DHT22;6196;48.398;11.736;2023-03-16T04:15:55;-1.40;99.90
12268;DHT22;6196;48.398;11.736;2023-03-16T04:18:25;-1.40;99.90
12268;DHT22;6196;48.398;11.736;2023-03-16T04:20:52;-1.40;99.90
12268;DHT22;6196;48.398;11.736;2023-03-16T04:23:20;-1.40;99.90
12268;DHT22;6196;48.398;11.736;2023-03-16T04:25:47;-1.40;99.90
12268;DHT22;6196;48.398;11.736;2023-03-16T04:28:14;-1.40;99.90
12268;DHT22;6196;48.398;11.736;2023-03-16T04:30:43;-1.40;99.90
12268;DHT22;6196;48.398;11.736;2023-03-16T04:33:10;-1.30;99.90
12268;DHT22;6196;48.398;11.736;2023-03-16T04:35:37;-1.40;99.90
12268;DHT22;6196;48.398;11.736;2023-03-16T04:38:04;-1.50;99.90
12268;DHT22;6196;48.398;11.736;2023-03-16T04:40:30;-1.50;99.90
12268;DHT22;6196;48.398;11.736;2023-03-16T04:42:57;-1.50;99.90
12268;DHT22;6196;48.398;11.736;2023-03-16T04:45:24;-1.50;99.90
12268;DHT22;6196;48.398;11.736;2023-03-16T04:47:52;-1.50;99.90
12268;DHT22;6196;48.398;11.736;2023-03-16T04:50:19;-1.50;99.90
12268;DHT22;6196;48.398;11.736;2023-03-16T04:52:45;-1.50;99.90
12268;DHT22;6196;48.398;11.736;2023-03-16T04:55:12;-1.50;99.90
12268;DHT22;6196;48.398;11.736;2023-03-16T04:57:39;-1.50;99.90
12268;DHT22;6196;48.398;11.736;2023-03-16T05:00:06;-1.50;99.90
12268;DHT22;6196;48.398;11.736;2023-03-16T05:02:38;-1.50;99.90
12268;DHT22;6196;48.398;11.736;2023-03-16T05:05:05;-1.50;99.90
12268;DHT22;6196;48.398;11.736;2023-03-16T05:07:33;-1.60;99.90
12268;DHT22;6196;48.398;11.736;2023-03-16T05:10:00;-1.60;99.90
12268;DHT22;6196;48.398;11.736;2023-03-16T05:12:27;-1.60;99.90
12268;DHT22;6196;48.398;11.736;2023-03-16T05:14:53;-1.70;99.90
12268;DHT22;6196;48.398;11.736;2023-03-16T05:17:20;-1.70;99.90
12268;DHT22;6196;48.398;11.736;2023-03-16T05:19:47;-1.70;99.90
12268;DHT22;6196;48.398;11.736;2023-03-16T05:22:15;-1.70;99.90
12268;DHT22;6196;48.398;11.736;2023-03-16T05:24:42;-1.70;99.90
12268;DHT22;6196;48.398;11.736;2023-03-16T05:27:22;-1.70;99.90
12268;DHT22;6196;48.398;11.736;2023-03-16T05:29:49;-1.70;99.90
12268;DHT22;6196;48.398;11.736;2023-03-16T05:32:15;-1.70;99.90
12268;DHT22;6196;48.398;11.736;2023-03-16T05:34:42;-1.70;99.90
12268;DHT22;6196;48.398;11.736;2023-03-16T05:37:09;-1.70;99.90
12268;DHT22;6196;48.398;11.736;2023-03-16T05:39:36;-1.70;99.90
12268;DHT22;6196;48.398;11.736;2023-03-16T05:42:03;-1.70;99.90
12268;DHT22;6196;48.398;11.736;2023-03-16T05:44:32;-1.70;99.90
12268;DHT22;6196;48.398;11.736;2023-03-16T05:46:59;-1.60;99.90
12268;DHT22;6196;48.398;11.736;2023-03-16T05:49:25;-1.60;99.90
12268;DHT22;6196;48.398;11.736;2023-03-16T05:51:52;-1.50;99.90
12268;DHT22;6196;48.398;11.736;2023-03-16T05:54:20;-1.40;99.90
12268;DHT22;6196;48.398;11.736;2023-03-16T05:56:47;-1.30;99.90
12268;DHT22;6196;48.398;11.736;2023-03-16T05:59:13;-1.30;99.90
12268;DHT22;6196;48.398;11.736;2023-03-16T06:01:42;-1.20;99.90
12268;DHT22;6196;48.398;11.736;2023-03-16T06:04:08;-1.20;99.90
12268;DHT22;6196;48.398;11.736;2023-03-16T06:06:35;-1.00;99.90
12268;DHT22;6196;48.398;11.736;2023-03-16T06:09:02;-0.80;99.90
12268;DHT22;6196;48.398;11.736;2023-03-16T06:11:29;-0.60;99.90
12268;DHT22;6196;48.398;11.736;2023-03-16T06:13:59;-0.40;99.90
12268;DHT22;6196;48.398;11.736;2023-03-16T06:16:32;-0.20;99.90
12268;DHT22;6196;48.398;11.736;2023-03-16T06:18:59;-0.10;99.90
12268;DHT22;6196;48.398;11.736;2023-03-16T06:21:26;0.00;99.90
12268;DHT22;6196;48.398;11.736;2023-03-16T06:23:53;0.30;99.90
12268;DHT22;6196;48.398;11.736;2023-03-16T06:26:21;0.40;99.90
12268;DHT22;6196;48.398;11.736;2023-03-16T06:28:48;0.60;99.90
12268;DHT22;6196;48.398;11.736;2023-03-16T06:31:15;0.80;99.90
12268;DHT22;6196;48.398;11.736;2023-03-16T06:33:42;1.00;99.90
12268;DHT22;6196;48.398;11.736;2023-03-16T06:36:09;1.10;99.90
12268;DHT22;6196;48.398;11.736;2023-03-16T06:38:36;1.40;99.90
12268;DHT22;6196;48.398;11.736;2023-03-16T06:41:02;1.60;99.90
12268;DHT22;6196;48.398;11.736;2023-03-16T06:43:29;1.70;99.90
12268;DHT22;6196;48.398;11.736;2023-03-16T06:45:56;1.80;99.90
12268;DHT22;6196;48.398;11.736;2023-03-16T06:48:24;1.90;99.90
12268;DHT22;6196;48.398;11.736;2023-03-16T06:50:51;2.10;99.90
12268;DHT22;6196;48.398;11.736;2023-03-16T06:53:18;2.40;99.90
12268;DHT22;6196;48.398;11.736;2023-03-16T06:55:44;2.50;99.90
12268;DHT22;6196;48.398;11.736;2023-03-16T06:58:11;2.60;99.90
12268;DHT22;6196;48.398;11.736;2023-03-16T07:00:38;2.70;99.90
12268;DHT22;6196;48.398;11.736;2023-03-16T07:03:05;2.80;99.90
12268;DHT22;6196;48.398;11.736;2023-03-16T07:05:32;2.90;99.90
12268;DHT22;6196;48.398;11.736;2023-03-16T07:07:59;3.10;99.90
12268;DHT22;6196;48.398;11.736;2023-03-16T07:10:27;3.20;99.90
12268;DHT22;6196;48.398;11.736;2023-03-16T07:12:54;3.20;99.90
12268;DHT22;6196;48.398;11.736;2023-03-16T07:15:21;3.40;99.90
12268;DHT22;6196;48.398;11.736;2023-03-16T07:17:51;3.50;99.90
12268;DHT22;6196;48.398;11.736;2023-03-16T07:20:18;3.60;99.90
12268;DHT22;6196;48.398;11.736;2023-03-16T07:22:48;3.70;99.90
12268;DHT22;6196;48.398;11.736;2023-03-16T07:25:15;3.70;99.90
12268;DHT22;6196;48.398;11.736;2023-03-16T07:27:42;3.70;99.90
12268;DHT22;6196;48.398;11.736;2023-03-16T07:30:11;3.70;99.90
12268;DHT22;6196;48.398;11.736;2023-03-16T07:32:40;3.70;99.90
12268;DHT22;6196;48.398;11.736;2023-03-16T07:35:09;3.80;99.90
12268;DHT22;6196;48.398;11.736;2023-03-16T07:37:37;4.10;99.90
12268;DHT22;6196;48.398;11.736;2023-03-16T07:40:05;4.10;99.90
12268;DHT22;6196;48.398;11.736;2023-03-16T07:42:35;4.40;99.90
12268;DHT22;6196;48.398;11.736;2023-03-16T07:45:03;4.60;99.90
12268;DHT22;6196;48.398;11.736;2023-03-16T07:47:31;4.70;99.90
12268;DHT22;6196;48.398;11.736;2023-03-16T07:49:59;4.80;99.90
12268;DHT22;6196;48.398;11.736;2023-03-16T07:52:26;5.00;99.90
12268;DHT22;6196;48.398;11.736;2023-03-16T07:54:54;5.10;99.90
12268;DHT22;6196;48.398;11.736;2023-03-16T07:57:21;5.10;99.90
12268;DHT22;6196;48.398;11.736;2023-03-16T07:59:48;5.10;99.90
12268;DHT22;6196;48.398;11.736;2023-03-16T08:02:18;5.00;99.90
12268;DHT22;6196;48.398;11.736;2023-03-16T08:04:46;5.20;99.90
12268;DHT22;6196;48.398;11.736;2023-03-16T08:07:13;5.30;99.90
12268;DHT22;6196;48.398;11.736;2023-03-16T08:09:41;5.40;99.90
12268;DHT22;6196;48.398;11.736;2023-03-16T08:12:08;5.60;99.90
12268;DHT22;6196;48.398;11.736;2023-03-16T08:14:36;5.80;99.90
12268;DHT22;6196;48.398;11.736;2023-03-16T08:17:04;6.00;99.90
12268;DHT22;6196;48.398;11.736;2023-03-16T08:19:33;6.20;99.90
12268;DHT22;6196;48.398;11.736;2023-03-16T08:22:00;6.40;99.90
12268;DHT22;6196;48.398;11.736;2023-03-16T08:24:28;6.50;99.90
12268;DHT22;6196;48.398;11.736;2023-03-16T08:26:55;7.00;99.90
12268;DHT22;6196;48.398;11.736;2023-03-16T08:29:24;6.90;99.90
12268;DHT22;6196;48.398;11.736;2023-03-16T08:31:52;7.20;99.90
12268;DHT22;6196;48.398;11.736;2023-03-16T08:34:23;7.40;99.90
12268;DHT22;6196;48.398;11.736;2023-03-16T08:36:50;7.20;99.90
12268;DHT22;6196;48.398;11.736;2023-03-16T08:39:17;7.00;99.90
12268;DHT22;6196;48.398;11.736;2023-03-16T08:41:43;7.20;99.90
12268;DHT22;6196;48.398;11.736;2023-03-16T08:44:12;7.10;99.90
12268;DHT22;6196;48.398;11.736;2023-03-16T08:46:39;6.90;99.90
12268;DHT22;6196;48.398;11.736;2023-03-16T08:49:07;7.10;99.90
12268;DHT22;6196;48.398;11.736;2023-03-16T08:51:34;7.30;99.90
12268;DHT22;6196;48.398;11.736;2023-03-16T08:54:02;7.30;99.90
12268;DHT22;6196;48.398;11.736;2023-03-16T08:56:29;7.80;99.90
12268;DHT22;6196;48.398;11.736;2023-03-16T08:58:56;7.90;99.90
12268;DHT22;6196;48.398;11.736;2023-03-16T09:01:23;8.00;99.90
12268;DHT22;6196;48.398;11.736;2023-03-16T09:03:51;7.90;99.90
12268;DHT22;6196;48.398;11.736;2023-03-16T09:06:18;7.50;99.90
12268;DHT22;6196;48.398;11.736;2023-03-16T09:08:45;7.50;99.90
12268;DHT22;6196;48.398;11.736;2023-03-16T09:11:15;7.60;99.90
12268;DHT22;6196;48.398;11.736;2023-03-16T09:13:44;7.50;99.90
12268;DHT22;6196;48.398;11.736;2023-03-16T09:16:12;7.10;99.90
12268;DHT22;6196;48.398;11.736;2023-03-16T09:18:41;7.00;99.90
12268;DHT22;6196;48.398;11.736;2023-03-16T09:21:09;7.10;99.90
12268;DHT22;6196;48.398;11.736;2023-03-16T09:23:40;7.20;99.90
12268;DHT22;6196;48.398;11.736;2023-03-16T09:26:08;7.30;99.90
12268;DHT22;6196;48.398;11.736;2023-03-16T09:28:36;7.20;99.90
12268;DHT22;6196;48.398;11.736;2023-03-16T09:31:05;7.20;99.90
12268;DHT22;6196;48.398;11.736;2023-03-16T09:33:34;7.00;99.90
12268;DHT22;6196;48.398;11.736;2023-03-16T09:36:02;7.10;99.90
12268;DHT22;6196;48.398;11.736;2023-03-16T09:38:29;7.20;99.90
12268;DHT22;6196;48.398;11.736;2023-03-16T09:41:00;7.50;99.90
12268;DHT22;6196;48.398;11.736;2023-03-16T09:46:41;7.40;99.90
12268;DHT22;6196;48.398;11.736;2023-03-16T09:49:15;7.50;99.90
12268;DHT22;6196;48.398;11.736;2023-03-16T09:51:55;7.60;99.90
12268;DHT22;6196;48.398;11.736;2023-03-16T09:54:44;7.70;99.90
12268;DHT22;6196;48.398;11.736;2023-03-16T09:57:35;7.90;99.90
12268;DHT22;6196;48.398;11.736;2023-03-16T10:00:46;7.60;99.90
12268;DHT22;6196;48.398;11.736;2023-03-16T10:07:00;7.10;99.90
12268;DHT22;6196;48.398;11.736;2023-03-16T10:10:04;7.30;99.90
12268;DHT22;6196;48.398;11.736;2023-03-16T10:12:46;7.20;99.90
12268;DHT22;6196;48.398;11.736;2023-03-16T10:15:19;7.50;99.90
12268;DHT22;6196;48.398;11.736;2023-03-16T10:18:03;7.30;99.90
12268;DHT22;6196;48.398;11.736;2023-03-16T10:20:35;7.30;99.90
12268;DHT22;6196;48.398;11.736;2023-03-16T10:23:21;7.30;99.90
12268;DHT22;6196;48.398;11.736;2023-03-16T10:25:54;7.10;99.90
12268;DHT22;6196;48.398;11.736;2023-03-16T10:28:24;6.80;99.90
12268;DHT22;6196;48.398;11.736;2023-03-16T10:30:54;7.10;99.90
12268;DHT22;6196;48.398;11.736;2023-03-16T10:33:27;7.50;99.90
12268;DHT22;6196;48.398;11.736;2023-03-16T10:41:19;7.90;99.90
12268;DHT22;6196;48.398;11.736;2023-03-16T10:43:56;7.80;99.90
12268;DHT22;6196;48.398;11.736;2023-03-16T10:46:27;8.00;99.90
12268;DHT22;6196;48.398;11.736;2023-03-16T10:48:57;8.20;99.90
12268;DHT22;6196;48.398;11.736;2023-03-16T10:51:28;7.90;99.90
12268;DHT22;6196;48.398;11.736;2023-03-16T10:54:07;8.10;99.90
12268;DHT22;6196;48.398;11.736;2023-03-16T10:56:39;8.20;99.90
12268;DHT22;6196;48.398;11.736;2023-03-16T10:59:25;8.10;99.90
12268;DHT22;6196;48.398;11.736;2023-03-16T11:01:54;8.20;99.90
12268;DHT22;6196;48.398;11.736;2023-03-16T11:04:23;8.40;99.90
12268;DHT22;6196;48.398;11.736;2023-03-16T11:06:55;8.50;99.90
12268;DHT22;6196;48.398;11.736;2023-03-16T11:09:31;8.80;99.90
12268;DHT22;6196;48.398;11.736;2023-03-16T11:12:10;8.70;99.90
12268;DHT22;6196;48.398;11.736;2023-03-16T11:14:42;9.20;99.90
12268;DHT22;6196;48.398;11.736;2023-03-16T11:17:33;9.40;99.90
12268;DHT22;6196;48.398;11.736;2023-03-16T11:20:11;9.00;99.90
12268;DHT22;6196;48.398;11.736;2023-03-16T11:22:44;9.40;99.90
12268;DHT22;6196;48.398;11.736;2023-03-16T11:25:13;9.80;99.90
12268;DHT22;6196;48.398;11.736;2023-03-16T11:30:46;10.30;99.90
12268;DHT22;6196;48.398;11.736;2023-03-16T11:33:17;10.30;99.90
12268;DHT22;6196;48.398;11.736;2023-03-16T11:36:06;10.70;99.90
12268;DHT22;6196;48.398;11.736;2023-03-16T11:39:06;11.00;99.90
12268;DHT22;6196;48.398;11.736;2023-03-16T11:41:49;11.10;99.90
12268;DHT22;6196;48.398;11.736;2023-03-16T11:50:21;11.30;99.90
12268;DHT22;6196;48.398;11.736;2023-03-16T11:53:28;11.70;99.90
12268;DHT22;6196;48.398;11.736;2023-03-16T11:55:58;11.60;99.90
12268;DHT22;6196;48.398;11.736;2023-03-16T12:01:53;11.10;99.90
12268;DHT22;6196;48.398;11.736;2023-03-16T12:10:41;12.00;99.90
12268;DHT22;6196;48.398;11.736;2023-03-16T12:13:34;12.10;99.90
12268;DHT22;6196;48.398;11.736;2023-03-16T12:16:31;12.00;99.90
12268;DHT22;6196;48.398;11.736;2023-03-16T12:22:38;11.70;99.90
12268;DHT22;6196;48.398;11.736;2023-03-16T12:25:16;13.00;99.90
12268;DHT22;6196;48.398;11.736;2023-03-16T12:27:52;12.90;99.90
12268;DHT22;6196;48.398;11.736;2023-03-16T12:33:00;14.70;99.90
12268;DHT22;6196;48.398;11.736;2023-03-16T12:38:21;15.00;99.90
12268;DHT22;6196;48.398;11.736;2023-03-16T12:41:32;15.10;99.90
12268;DHT22;6196;48.398;11.736;2023-03-16T12:44:08;15.90;99.20
12268;DHT22;6196;48.398;11.736;2023-03-16T12:46:52;16.20;98.50
12268;DHT22;6196;48.398;11.736;2023-03-16T12:49:31;15.90;97.60
12268;DHT22;6196;48.398;11.736;2023-03-16T12:52:05;16.30;97.50
12268;DHT22;6196;48.398;11.736;2023-03-16T12:54:47;16.40;97.00
12268;DHT22;6196;48.398;11.736;2023-03-16T12:57:22;16.50;96.70
12268;DHT22;6196;48.398;11.736;2023-03-16T12:59:55;16.60;96.10
12268;DHT22;6196;48.398;11.736;2023-03-16T13:02:27;17.00;95.60
12268;DHT22;6196;48.398;11.736;2023-03-16T13:05:07;17.70;94.10
12268;DHT22;6196;48.398;11.736;2023-03-16T13:07:51;18.30;92.40
12268;DHT22;6196;48.398;11.736;2023-03-16T13:11:19;18.80;90.20
12268;DHT22;6196;48.398;11.736;2023-03-16T13:16:30;18.10;88.60
12268;DHT22;6196;48.398;11.736;2023-03-16T13:18:58;18.40;88.10
12268;DHT22;6196;48.398;11.736;2023-03-16T13:21:35;19.00;88.40
12268;DHT22;6196;48.398;11.736;2023-03-16T13:24:26;19.30;84.50
12268;DHT22;6196;48.398;11.736;2023-03-16T13:27:12;20.20;83.20
12268;DHT22;6196;48.398;11.736;2023-03-16T13:29:59;20.60;81.70
12268;DHT22;6196;48.398;11.736;2023-03-16T13:32:32;21.00;77.30
12268;DHT22;6196;48.398;11.736;2023-03-16T13:35:01;21.40;75.00
12268;DHT22;6196;48.398;11.736;2023-03-16T13:37:30;21.40;72.60
12268;DHT22;6196;48.398;11.736;2023-03-16T13:39:59;21.60;69.60
12268;DHT22;6196;48.398;11.736;2023-03-16T13:42:31;21.80;68.00
12268;DHT22;6196;48.398;11.736;2023-03-16T13:45:11;22.00;66.30
12268;DHT22;6196;48.398;11.736;2023-03-16T13:47:42;21.80;66.50
12268;DHT22;6196;48.398;11.736;2023-03-16T13:50:11;20.70;67.00
12268;DHT22;6196;48.398;11.736;2023-03-16T13:52:40;21.20;67.30
12268;DHT22;6196;48.398;11.736;2023-03-16T13:55:15;21.80;64.30
12268;DHT22;6196;48.398;11.736;2023-03-16T13:57:44;23.00;63.20
12268;DHT22;6196;48.398;11.736;2023-03-16T14:00:23;23.80;62.00
12268;DHT22;6196;48.398;11.736;2023-03-16T14:02:56;23.30;61.90
12268;DHT22;6196;48.398;11.736;2023-03-16T14:05:30;23.00;62.00
12268;DHT22;6196;48.398;11.736;2023-03-16T14:07:59;23.60;59.10
12268;DHT22;6196;48.398;11.736;2023-03-16T14:10:33;23.40;58.20
12268;DHT22;6196;48.398;11.736;2023-03-16T14:15:57;24.90;57.00
12268;DHT22;6196;48.398;11.736;2023-03-16T14:18:34;24.20;56.40
12268;DHT22;6196;48.398;11.736;2023-03-16T14:21:20;23.90;56.10
12268;DHT22;6196;48.398;11.736;2023-03-16T14:26:42;23.10;57.80
12268;DHT22;6196;48.398;11.736;2023-03-16T14:29:27;22.60;57.40
12268;DHT22;6196;48.398;11.736;2023-03-16T14:31:58;22.70;58.10
12268;DHT22;6196;48.398;11.736;2023-03-16T14:34:29;23.50;56.20
12268;DHT22;6196;48.398;11.736;2023-03-16T14:39:56;22.40;56.80
12268;DHT22;6196;48.398;11.736;2023-03-16T14:42:28;22.70;56.30
12268;DHT22;6196;48.398;11.736;2023-03-16T14:44:57;23.40;55.50
12268;DHT22;6196;48.398;11.736;2023-03-16T14:47:30;24.00;54.90
12268;DHT22;6196;48.398;11.736;2023-03-16T14:50:07;23.90;54.90
12268;DHT22;6196;48.398;11.736;2023-03-16T14:52:38;24.90;55.50
12268;DHT22;6196;48.398;11.736;2023-03-16T14:55:11;25.80;52.30
12268;DHT22;6196;48.398;11.736;2023-03-16T14:57:41;25.80;52.30
12268;DHT22;6196;48.398;11.736;2023-03-16T15:00:10;25.00;53.00
12268;DHT22;6196;48.398;11.736;2023-03-16T15:02:41;24.60;52.60
12268;DHT22;6196;48.398;11.736;2023-03-16T15:05:18;24.80;52.70
12268;DHT22;6196;48.398;11.736;2023-03-16T15:07:51;24.00;52.80
12268;DHT22;6196;48.398;11.736;2023-03-16T15:10:25;23.40;53.10
12268;DHT22;6196;48.398;11.736;2023-03-16T15:12:55;23.30;53.40
12268;DHT22;6196;48.398;11.736;2023-03-16T15:15:31;23.40;52.80
12268;DHT22;6196;48.398;11.736;2023-03-16T15:17:58;23.70;52.80
12268;DHT22;6196;48.398;11.736;2023-03-16T15:20:31;23.30;52.70
12268;DHT22;6196;48.398;11.736;2023-03-16T15:23:01;23.60;52.90
12268;DHT22;6196;48.398;11.736;2023-03-16T15:25:38;23.00;52.50
12268;DHT22;6196;48.398;11.736;2023-03-16T15:28:16;21.90;53.70
12268;DHT22;6196;48.398;11.736;2023-03-16T15:30:47;22.20;53.70
12268;DHT22;6196;48.398;11.736;2023-03-16T15:33:15;22.50;53.50
12268;DHT22;6196;48.398;11.736;2023-03-16T15:35:44;22.20;53.70
12268;DHT22;6196;48.398;11.736;2023-03-16T15:38:27;22.10;53.40
12268;DHT22;6196;48.398;11.736;2023-03-16T15:40:55;21.30;52.40
12268;DHT22;6196;48.398;11.736;2023-03-16T15:43:24;21.80;53.10
12268;DHT22;6196;48.398;11.736;2023-03-16T15:45:53;21.40;53.30
12268;DHT22;6196;48.398;11.736;2023-03-16T15:48:21;20.90;54.20
12268;DHT22;6196;48.398;11.736;2023-03-16T15:51:05;20.00;54.90
12268;DHT22;6196;48.398;11.736;2023-03-16T15:53:44;18.50;56.80
12268;DHT22;6196;48.398;11.736;2023-03-16T15:56:14;16.70;58.40
12268;DHT22;6196;48.398;11.736;2023-03-16T15:58:44;15.50;60.80
12268;DHT22;6196;48.398;11.736;2023-03-16T16:01:20;14.40;63.40
12268;DHT22;6196;48.398;11.736;2023-03-16T16:03:50;13.30;64.30
12268;DHT22;6196;48.398;11.736;2023-03-16T16:06:17;12.70;66.20
12268;DHT22;6196;48.398;11.736;2023-03-16T16:08:44;12.10;68.10
12268;DHT22;6196;48.398;11.736;2023-03-16T16:11:25;11.80;69.40
12268;DHT22;6196;48.398;11.736;2023-03-16T16:13:54;11.50;69.60
12268;DHT22;6196;48.398;11.736;2023-03-16T16:16:22;11.20;71.20
12268;DHT22;6196;48.398;11.736;2023-03-16T16:18:52;10.90;71.40
12268;DHT22;6196;48.398;11.736;2023-03-16T16:21:24;10.80;72.50
12268;DHT22;6196;48.398;11.736;2023-03-16T16:23:54;10.70;73.70
12268;DHT22;6196;48.398;11.736;2023-03-16T16:26:34;10.60;73.90
12268;DHT22;6196;48.398;11.736;2023-03-16T16:29:20;10.50;74.30
12268;DHT22;6196;48.398;11.736;2023-03-16T16:31:49;10.40;74.80
12268;DHT22;6196;48.398;11.736;2023-03-16T16:34:20;10.30;75.10
12268;DHT22;6196;48.398;11.736;2023-03-16T16:36:49;10.30;75.80
12268;DHT22;6196;48.398;11.736;2023-03-16T16:39:17;10.30;75.70
12268;DHT22;6196;48.398;11.736;2023-03-16T16:41:44;10.20;76.80
12268;DHT22;6196;48.398;11.736;2023-03-16T16:44:17;10.00;77.40
12268;DHT22;6196;48.398;11.736;2023-03-16T16:46:48;9.80;79.30
12268;DHT22;6196;48.398;11.736;2023-03-16T16:49:22;9.90;79.60
12268;DHT22;6196;48.398;11.736;2023-03-16T16:51:51;9.70;79.40
12268;DHT22;6196;48.398;11.736;2023-03-16T16:54:21;9.70;79.40
12268;DHT22;6196;48.398;11.736;2023-03-16T16:56:51;9.50;80.40
12268;DHT22;6196;48.398;11.736;2023-03-16T16:59:22;9.50;80.50